createdAt,value
2019-05-03T00:02:28.504Z,99139.66
2019-05-03T00:05:27.379Z,99136.30
2019-05-03T00:08:07.212Z,99140.25
2019-05-03T00:10:42.444Z,99142.87
2019-05-03T00:13:15.425Z,99126.29
2019-05-03T00:16:09.922Z,99133.92
2019-05-03T00:18:42.535Z,99135.21
2019-05-03T00:21:14.418Z,99129.75
2019-05-03T00:23:46.290Z,99132.12
2019-05-03T00:26:18.180Z,99132.48
2019-05-03T00:28:51.890Z,99136.54
2019-05-03T00:31:23.836Z,99138.09
2019-05-03T00:33:59.942Z,99141.19
2019-05-03T00:36:45.790Z,99132.27
2019-05-03T00:39:26.213Z,99130.59
2019-05-03T00:41:58.094Z,99132.50
2019-05-03T00:44:31.600Z,99132.95
2019-05-03T00:47:03.610Z,99126.80
2019-05-03T00:49:35.345Z,99128.22
2019-05-03T00:52:07.146Z,99121.42
2019-05-03T00:54:38.907Z,99123.92
2019-05-03T00:57:12.076Z,99125.00
2019-05-03T00:59:44.092Z,99125.00
2019-05-03T01:02:16.264Z,99122.26
2019-05-03T01:04:48.069Z,99121.05
2019-05-03T01:07:22.103Z,99122.61
2019-05-03T01:09:53.552Z,99119.86
2019-05-03T01:12:25.406Z,99126.52
2019-05-03T01:15:01.980Z,99118.69
2019-05-03T01:17:36.589Z,99122.73
2019-05-03T01:20:08.479Z,99118.45
2019-05-03T01:22:42.434Z,99115.55
2019-05-03T01:25:14.286Z,99101.65
2019-05-03T01:27:46.228Z,99105.91
2019-05-03T01:30:18.446Z,99107.69
2019-05-03T01:32:52.222Z,99097.68
2019-05-03T01:35:23.934Z,99095.42
2019-05-03T01:37:55.981Z,99094.92
2019-05-03T01:40:27.794Z,99088.46
2019-05-03T01:42:59.619Z,99092.54
2019-05-03T01:45:31.915Z,99085.14
2019-05-03T01:48:13.878Z,99090.62
2019-05-03T01:51:02.913Z,99084.14
2019-05-03T01:53:36.035Z,99101.19
2019-05-03T01:56:07.814Z,99097.92
2019-05-03T01:58:41.742Z,99106.38
2019-05-03T02:01:22.079Z,99108.84
2019-05-03T02:04:04.128Z,99094.86
2019-05-03T02:06:35.893Z,99104.45
2019-05-03T02:09:09.733Z,99102.08
2019-05-03T02:11:42.195Z,99096.18
2019-05-03T02:14:14.428Z,99094.61
2019-05-03T02:16:46.509Z,99100.88
2019-05-03T02:19:18.602Z,99101.98
2019-05-03T02:21:52.212Z,99103.88
2019-05-03T02:24:24.064Z,99106.69
2019-05-03T02:26:55.861Z,99104.19
2019-05-03T02:29:27.786Z,99089.34
2019-05-03T02:32:02.980Z,99101.65
2019-05-03T02:34:33.683Z,99091.53
2019-05-03T02:37:05.676Z,99095.09
2019-05-03T02:39:37.773Z,99088.60
2019-05-03T02:42:11.574Z,99093.22
2019-05-03T02:44:45.907Z,99098.23
2019-05-03T02:47:29.204Z,99089.75
2019-05-03T02:50:06.159Z,99090.70
2019-05-03T02:52:38.238Z,99088.52
2019-05-03T02:55:11.886Z,99091.25
2019-05-03T02:57:46.657Z,99085.38
2019-05-03T03:00:19.531Z,99098.14
2019-05-03T03:02:51.690Z,99088.80
2019-05-03T03:05:25.263Z,99088.08
2019-05-03T03:07:57.797Z,99094.64
2019-05-03T03:10:30.849Z,99095.15
2019-05-03T03:13:06.544Z,99103.36
2019-05-03T03:15:45.677Z,99094.05
2019-05-03T03:18:19.936Z,99107.05
2019-05-03T03:20:56.144Z,99112.67
2019-05-03T03:23:35.318Z,99113.86
2019-05-03T03:26:07.923Z,99116.05
2019-05-03T03:28:42.473Z,99127.86
2019-05-03T03:32:29.697Z,99125.77
2019-05-03T03:35:31.092Z,99130.84
2019-05-03T03:38:05.727Z,99134.34
2019-05-03T03:40:39.283Z,99123.59
2019-05-03T03:43:15.696Z,99123.67
2019-05-03T03:45:49.596Z,99120.64
2019-05-03T03:48:26.344Z,99136.55
2019-05-03T03:50:59.144Z,99137.86
2019-05-03T03:53:35.578Z,99138.09
2019-05-03T03:56:09.213Z,99136.16
2019-05-03T03:58:41.057Z,99141.59
2019-05-03T04:01:15.626Z,99145.73
2019-05-03T04:03:47.324Z,99139.16
2019-05-03T04:06:21.127Z,99142.80
2019-05-03T04:08:56.090Z,99148.41
2019-05-03T04:11:27.209Z,99154.98
2019-05-03T04:14:00.598Z,99144.39
2019-05-03T04:16:39.191Z,99160.59
2019-05-03T04:19:17.619Z,99160.55
2019-05-03T04:21:49.862Z,99172.50
2019-05-03T04:24:21.966Z,99167.19
2019-05-03T04:27:15.521Z,99178.55
2019-05-03T04:29:40.245Z,99180.63
2019-05-03T04:32:12.009Z,99187.73
2019-05-03T04:34:45.413Z,99195.07
2019-05-03T04:37:17.490Z,99206.64
2019-05-03T04:39:49.612Z,99205.25
2019-05-03T04:42:21.426Z,99219.95
2019-05-03T04:44:55.963Z,99227.20
2019-05-03T04:47:26.927Z,99232.49
2019-05-03T04:49:58.753Z,99220.27
2019-05-03T04:52:30.840Z,99233.92
2019-05-03T04:55:02.759Z,99223.48
2019-05-03T04:57:40.712Z,99221.66
2019-05-03T05:00:11.708Z,99226.72
2019-05-03T05:02:45.751Z,99227.84
2019-05-03T05:05:17.445Z,99225.77
2019-05-03T05:07:49.482Z,99230.69
2019-05-03T05:10:21.472Z,99236.91
2019-05-03T05:12:55.177Z,99238.17
2019-05-03T05:15:26.920Z,99242.84
2019-05-03T05:18:26.170Z,99241.66
2019-05-03T05:21:11.416Z,99247.84
2019-05-03T05:24:05.292Z,99255.38
2019-05-03T05:26:45.447Z,99258.80
2019-05-03T05:29:19.336Z,99261.09
2019-05-03T05:31:51.431Z,99257.15
2019-05-03T05:34:24.609Z,99258.12
2019-05-03T05:36:56.794Z,99268.50
2019-05-03T05:39:28.872Z,99268.73
2019-05-03T05:42:00.702Z,99266.86
2019-05-03T05:44:32.623Z,99266.13
2019-05-03T05:47:25.289Z,99267.33
2019-05-03T05:50:06.864Z,99273.87
2019-05-03T05:52:38.887Z,99281.37
2019-05-03T05:55:28.841Z,99275.55
2019-05-03T05:58:12.391Z,99287.55
2019-05-03T06:00:59.709Z,99293.91
2019-05-03T06:03:31.544Z,99300.94
2019-05-03T06:06:05.934Z,99308.34
2019-05-03T06:08:44.716Z,99310.37
2019-05-03T06:11:27.928Z,99308.94
2019-05-03T06:14:11.898Z,99308.44
2019-05-03T06:16:50.201Z,99314.77
2019-05-03T06:19:35.530Z,99318.23
2019-05-03T06:22:25.681Z,99329.78
2019-05-03T06:25:07.075Z,99333.97
2019-05-03T06:27:39.923Z,99332.19
2019-05-03T06:30:27.017Z,99344.67
2019-05-03T06:32:58.887Z,99330.13
2019-05-03T06:35:31.012Z,99335.61
2019-05-03T06:38:04.816Z,99331.33
2019-05-03T06:40:36.481Z,99336.22
2019-05-03T06:43:12.655Z,99339.67
2019-05-03T06:45:49.073Z,99350.52
2019-05-03T06:48:17.563Z,99352.81
2019-05-03T06:50:49.239Z,99367.72
2019-05-03T06:53:21.064Z,99374.27
2019-05-03T06:55:55.252Z,99364.94
2019-05-03T06:58:33.159Z,99381.19
2019-05-03T07:01:22.394Z,99377.96
2019-05-03T07:04:01.631Z,99387.97
2019-05-03T07:06:46.627Z,99389.03
2019-05-03T07:09:44.459Z,99380.45
2019-05-03T07:12:16.593Z,99381.66
2019-05-03T07:14:50.472Z,99396.16
2019-05-03T07:17:24.743Z,99399.17
2019-05-03T07:19:56.471Z,99402.50
2019-05-03T07:22:28.267Z,99401.67
2019-05-03T07:25:00.067Z,99397.16
2019-05-03T07:27:32.101Z,99399.89
2019-05-03T07:30:04.846Z,99396.44
2019-05-03T07:32:39.097Z,99405.25
2019-05-03T07:35:11.017Z,99395.59
2019-05-03T07:37:44.994Z,99404.20
2019-05-03T07:40:16.822Z,99406.34
2019-05-03T07:42:48.893Z,99406.80
2019-05-03T07:45:20.737Z,99416.47
2019-05-03T07:47:52.576Z,99413.97
2019-05-03T07:50:25.931Z,99407.27
2019-05-03T07:52:58.078Z,99413.72
2019-05-03T07:55:47.373Z,99423.27
2019-05-03T07:58:21.976Z,99420.24
2019-05-03T08:01:05.859Z,99421.89
2019-05-03T08:03:31.038Z,99421.18
2019-05-03T08:06:04.756Z,99424.41
2019-05-03T08:08:36.700Z,99421.55
2019-05-03T08:11:08.797Z,99428.94
2019-05-03T08:13:40.821Z,99437.28
2019-05-03T08:16:12.587Z,99441.70
2019-05-03T08:18:45.742Z,99436.35
2019-05-03T08:21:17.707Z,99436.37
2019-05-03T08:23:49.701Z,99433.16
2019-05-03T08:26:21.484Z,99436.37
2019-05-03T08:28:54.470Z,99437.34
2019-05-03T08:31:54.734Z,99436.63
2019-05-03T08:34:49.445Z,99437.13
2019-05-03T08:37:35.227Z,99444.75
2019-05-03T08:40:07.854Z,99440.77
2019-05-03T08:42:39.596Z,99430.77
2019-05-03T08:45:11.875Z,99446.88
2019-05-03T08:47:45.024Z,99450.77
2019-05-03T08:50:21.351Z,99461.86
2019-05-03T08:52:50.700Z,99454.22
2019-05-03T08:55:24.850Z,99447.61
2019-05-03T08:57:56.181Z,99450.73
2019-05-03T09:00:29.726Z,99443.02
2019-05-03T09:03:01.554Z,99455.10
2019-05-03T09:05:35.795Z,99452.46
2019-05-03T09:08:07.043Z,99453.80
2019-05-03T09:10:51.555Z,99451.56
2019-05-03T09:13:25.145Z,99456.56
2019-05-03T09:15:57.253Z,99455.59
2019-05-03T09:18:29.156Z,99458.91
2019-05-03T09:21:00.967Z,99455.38
2019-05-03T09:23:32.835Z,99461.55
2019-05-03T09:26:04.901Z,99464.05
2019-05-03T09:28:36.824Z,99470.86
2019-05-03T09:31:08.790Z,99483.77
2019-05-03T09:33:40.943Z,99469.42
2019-05-03T09:36:14.701Z,99480.27
2019-05-03T09:38:46.459Z,99494.76
2019-05-03T09:41:18.416Z,99483.14
2019-05-03T09:43:50.237Z,99476.84
2019-05-03T09:46:24.253Z,99486.52
2019-05-03T09:49:09.521Z,99483.28
2019-05-03T09:51:29.709Z,99479.56
2019-05-03T09:54:08.040Z,99486.66
2019-05-03T09:56:58.968Z,99478.27
2019-05-03T09:59:31.924Z,99490.65
2019-05-03T10:02:04.725Z,99475.52
2019-05-03T10:04:37.250Z,99473.69
2019-05-03T10:07:09.587Z,99473.13
2019-05-03T10:09:41.376Z,99479.05
2019-05-03T10:12:19.167Z,99476.45
2019-05-03T10:14:51.046Z,99474.70
2019-05-03T10:17:55.503Z,99481.83
2019-05-03T10:20:28.286Z,99471.77
2019-05-03T10:23:07.050Z,99460.62
2019-05-03T10:25:40.447Z,99460.75
2019-05-03T10:28:12.614Z,99466.93
2019-05-03T10:30:45.050Z,99458.81
2019-05-03T10:33:25.814Z,99451.60
2019-05-03T10:35:57.143Z,99453.99
2019-05-03T10:38:29.085Z,99462.93
2019-05-03T10:41:00.914Z,99454.26
2019-05-03T10:43:32.875Z,99441.53
2019-05-03T10:46:05.247Z,99449.42
2019-05-03T10:48:37.437Z,99453.84
2019-05-03T10:51:09.196Z,99443.27
2019-05-03T10:53:45.452Z,99453.77
2019-05-03T10:56:31.383Z,99454.09
2019-05-03T10:59:06.209Z,99453.27
2019-05-03T11:02:15.427Z,99451.95
2019-05-03T11:04:47.669Z,99458.42
2019-05-03T11:07:19.737Z,99455.15
2019-05-03T11:09:55.085Z,99450.37
2019-05-03T11:12:27.183Z,99450.63
2019-05-03T11:14:59.474Z,99454.73
2019-05-03T11:17:31.855Z,99465.64
2019-05-03T11:20:05.261Z,99454.59
2019-05-03T11:22:37.364Z,99458.58
2019-05-03T11:25:09.653Z,99459.61
2019-05-03T11:27:47.061Z,99458.00
2019-05-03T11:30:19.353Z,99461.70
2019-05-03T11:32:59.119Z,99457.69
2019-05-03T11:35:56.109Z,99461.06
2019-05-03T11:38:34.944Z,99442.38
2019-05-03T11:41:07.303Z,99455.60
2019-05-03T11:43:39.124Z,99454.66
2019-05-03T11:46:10.941Z,99455.95
2019-05-03T11:48:42.871Z,99455.22
2019-05-03T11:51:15.263Z,99454.27
2019-05-03T11:53:47.349Z,99452.80
2019-05-03T11:56:19.162Z,99456.84
2019-05-03T11:58:50.980Z,99465.50
2019-05-03T12:01:28.077Z,99458.06
2019-05-03T12:04:04.960Z,99448.62
2019-05-03T12:06:37.449Z,99441.95
2019-05-03T12:09:09.553Z,99454.87
2019-05-03T12:11:42.151Z,99453.66
2019-05-03T12:14:15.463Z,99456.78
2019-05-03T12:17:16.074Z,99453.06
2019-05-03T12:19:31.205Z,99452.02
2019-05-03T12:22:01.835Z,99452.87
2019-05-03T12:24:36.428Z,99442.14
2019-05-03T12:27:08.046Z,99447.83
2019-05-03T12:29:39.801Z,99443.22
2019-05-03T12:32:11.877Z,99452.54
2019-05-03T12:34:43.643Z,99437.59
2019-05-03T12:37:16.105Z,99437.53
2019-05-03T12:39:47.882Z,99450.59
2019-05-03T12:42:19.795Z,99457.03
2019-05-03T12:44:51.650Z,99451.39
2019-05-03T12:47:25.160Z,99450.75
2019-05-03T12:49:58.530Z,99431.66
2019-05-03T12:52:31.166Z,99443.39
2019-05-03T12:55:04.560Z,99438.80
2019-05-03T12:57:36.938Z,99436.55
2019-05-03T13:00:34.515Z,99432.47
2019-05-03T13:03:10.474Z,99436.67
2019-05-03T13:05:42.412Z,99424.23
2019-05-03T13:08:39.545Z,99423.88
2019-05-03T13:11:11.353Z,99428.79
2019-05-03T13:13:45.247Z,99419.86
2019-05-03T13:16:19.779Z,99430.20
2019-05-03T13:18:51.664Z,99439.88
2019-05-03T13:21:25.227Z,99436.02
2019-05-03T13:23:57.525Z,99426.22
2019-05-03T13:26:29.290Z,99427.09
2019-05-03T13:29:01.247Z,99434.50
2019-05-03T13:31:34.664Z,99430.63
2019-05-03T13:34:06.915Z,99438.05
2019-05-03T13:36:38.712Z,99432.16
2019-05-03T13:39:14.397Z,99431.38
2019-05-03T13:41:45.557Z,99438.33
2019-05-03T13:44:17.814Z,99434.66
2019-05-03T13:46:49.571Z,99419.23
2019-05-03T13:49:21.543Z,99432.20
2019-05-03T13:51:53.321Z,99436.50
2019-05-03T13:54:25.697Z,99430.53
2019-05-03T13:56:57.725Z,99430.25
2019-05-03T13:59:29.836Z,99439.28
2019-05-03T14:02:13.491Z,99427.11
2019-05-03T14:04:48.745Z,99432.48
2019-05-03T14:07:08.936Z,99429.03
2019-05-03T14:09:41.451Z,99433.30
2019-05-03T14:12:15.296Z,99444.66
2019-05-03T14:14:56.552Z,99437.91
2019-05-03T14:17:29.596Z,99450.71
2019-05-03T14:20:09.745Z,99441.79
2019-05-03T14:22:43.459Z,99439.44
2019-05-03T14:25:15.671Z,99437.64
2019-05-03T14:27:47.711Z,99446.70
2019-05-03T14:30:21.221Z,99441.50
2019-05-03T14:32:53.007Z,99441.37
2019-05-03T14:35:25.462Z,99446.39
2019-05-03T14:37:57.304Z,99444.80
2019-05-03T14:40:29.311Z,99456.92
2019-05-03T14:43:01.201Z,99455.86
2019-05-03T14:45:34.840Z,99449.11
2019-05-03T14:48:06.706Z,99437.09
2019-05-03T14:50:38.616Z,99435.44
2019-05-03T14:53:10.552Z,99451.06
2019-05-03T14:56:05.404Z,99451.96
2019-05-03T14:59:00.992Z,99449.22
2019-05-03T15:01:38.685Z,99447.52
2019-05-03T15:04:10.791Z,99444.80
2019-05-03T15:06:42.813Z,99443.80
2019-05-03T15:09:18.847Z,99455.44
2019-05-03T15:11:49.330Z,99452.56
2019-05-03T15:14:21.513Z,99452.40
2019-05-03T15:16:55.598Z,99448.45
2019-05-03T15:19:27.066Z,99456.75
2019-05-03T15:21:59.177Z,99451.28
2019-05-03T15:24:31.049Z,99458.97
2019-05-03T15:27:04.884Z,99461.16
2019-05-03T15:29:36.944Z,99458.56
2019-05-03T15:32:08.786Z,99457.54
2019-05-03T15:34:40.691Z,99451.94
2019-05-03T15:37:14.696Z,99457.36
2019-05-03T15:39:46.062Z,99443.30
2019-05-03T15:42:20.210Z,99465.78
2019-05-03T15:45:11.289Z,99468.33
2019-05-03T15:48:02.165Z,99464.09
2019-05-03T15:50:35.532Z,99468.45
2019-05-03T15:53:08.051Z,99468.14
2019-05-03T15:55:39.846Z,99463.47
2019-05-03T15:58:12.150Z,99472.11
2019-05-03T16:00:47.205Z,99467.73
2019-05-03T16:03:19.399Z,99467.25
2019-05-03T16:05:51.338Z,99467.48
2019-05-03T16:08:24.824Z,99466.45
2019-05-03T16:10:57.135Z,99481.00
2019-05-03T16:13:29.238Z,99474.98
2019-05-03T16:16:01.059Z,99476.67
2019-05-03T16:18:32.926Z,99482.05
2019-05-03T16:21:05.687Z,99480.27
2019-05-03T16:23:37.812Z,99481.77
2019-05-03T16:26:09.623Z,99486.82
2019-05-03T16:28:55.774Z,99484.84
2019-05-03T16:31:27.650Z,99482.78
2019-05-03T16:33:59.574Z,99484.97
2019-05-03T16:36:31.414Z,99489.15
2019-05-03T16:39:04.760Z,99495.86
2019-05-03T16:41:38.477Z,99493.45
2019-05-03T16:44:10.596Z,99498.59
2019-05-03T16:46:42.759Z,99500.11
2019-05-03T16:49:15.882Z,99496.63
2019-05-03T16:51:47.690Z,99510.95
2019-05-03T16:54:19.587Z,99505.82
2019-05-03T16:56:51.530Z,99514.41
2019-05-03T16:59:24.747Z,99512.56
2019-05-03T17:01:56.742Z,99517.18
2019-05-03T17:04:36.895Z,99524.12
2019-05-03T17:07:25.712Z,99523.24
2019-05-03T17:10:02.311Z,99525.94
2019-05-03T17:12:34.819Z,99522.38
2019-05-03T17:15:08.089Z,99526.60
2019-05-03T17:17:40.032Z,99532.31
2019-05-03T17:20:12.357Z,99531.89
2019-05-03T17:22:45.007Z,99533.50
2019-05-03T17:25:17.024Z,99536.27
2019-05-03T17:27:48.846Z,99540.62
2019-05-03T17:30:25.116Z,99537.67
2019-05-03T17:32:55.975Z,99542.17
2019-05-03T17:35:28.094Z,99541.81
2019-05-03T17:37:59.955Z,99551.03
2019-05-03T17:40:57.012Z,99554.80
2019-05-03T17:43:34.530Z,99550.52
2019-05-03T17:46:07.880Z,99546.59
2019-05-03T17:48:39.939Z,99552.64
2019-05-03T17:51:30.748Z,99554.09
2019-05-03T17:54:11.525Z,99553.64
2019-05-03T17:56:59.256Z,99561.81
2019-05-03T17:59:54.862Z,99561.61
2019-05-03T18:02:47.223Z,99569.00
2019-05-03T18:05:37.971Z,99566.05
2019-05-03T18:08:35.551Z,99571.69
2019-05-03T18:11:11.487Z,99572.25
2019-05-03T18:13:44.615Z,99567.42
2019-05-03T18:16:16.773Z,99577.61
2019-05-03T18:18:48.748Z,99579.51
2019-05-03T18:21:20.675Z,99576.80
2019-05-03T18:23:54.545Z,99584.08
2019-05-03T18:26:26.596Z,99588.29
2019-05-03T18:28:58.737Z,99594.05
2019-05-03T18:31:30.839Z,99591.42
2019-05-03T18:34:06.321Z,99597.16
2019-05-03T18:36:37.912Z,99597.65
2019-05-03T18:39:11.342Z,99604.70
2019-05-03T18:41:45.050Z,99604.94
2019-05-03T18:44:44.962Z,99594.94
2019-05-03T18:47:20.433Z,99602.22
2019-05-03T18:49:52.456Z,99609.49
2019-05-03T18:52:24.516Z,99614.38
2019-05-03T18:54:56.501Z,99616.30
2019-05-03T18:57:28.342Z,99621.20
2019-05-03T19:00:00.269Z,99619.66
2019-05-03T19:02:32.139Z,99625.52
2019-05-03T19:05:05.094Z,99628.72
2019-05-03T19:07:55.385Z,99623.73
2019-05-03T19:10:36.207Z,99627.64
2019-05-03T19:13:15.039Z,99636.23
2019-05-03T19:15:47.058Z,99636.13
2019-05-03T19:18:27.747Z,99640.04
2019-05-03T19:20:59.634Z,99640.61
2019-05-03T19:23:31.577Z,99650.03
2019-05-03T19:26:05.398Z,99649.99
2019-05-03T19:28:36.931Z,99652.84
2019-05-03T19:31:09.313Z,99650.91
2019-05-03T19:33:41.185Z,99647.53
2019-05-03T19:36:13.248Z,99648.60
2019-05-03T19:38:45.045Z,99650.95
2019-05-03T19:41:17.238Z,99661.38
2019-05-03T19:43:49.174Z,99656.21
2019-05-03T19:46:21.362Z,99649.58
2019-05-03T19:48:54.723Z,99655.39
2019-05-03T19:51:27.136Z,99655.55
2019-05-03T19:53:58.931Z,99659.33
2019-05-03T19:56:31.173Z,99658.06
2019-05-03T19:59:06.809Z,99658.61
2019-05-03T20:02:00.740Z,99655.20
2019-05-03T20:05:00.777Z,99660.27
2019-05-03T20:07:42.932Z,99657.41
2019-05-03T20:10:17.864Z,99662.81
2019-05-03T20:12:48.761Z,99659.70
2019-05-03T20:15:20.531Z,99656.75
2019-05-03T20:17:59.273Z,99658.09
2019-05-03T20:20:26.054Z,99662.64
2019-05-03T20:22:59.087Z,99653.05
2019-05-03T20:25:31.286Z,99656.55
2019-05-03T20:28:04.966Z,99654.23
2019-05-03T20:30:37.636Z,99659.41
2019-05-03T20:33:09.732Z,99655.77
2019-05-03T20:35:41.565Z,99650.87
2019-05-03T20:38:15.236Z,99654.70
2019-05-03T20:40:47.469Z,99652.41
2019-05-03T20:43:47.901Z,99652.61
2019-05-03T20:46:28.429Z,99660.55
2019-05-03T20:49:04.422Z,99656.82
2019-05-03T20:51:36.600Z,99652.73
2019-05-03T20:54:09.299Z,99655.64
2019-05-03T20:56:41.376Z,99655.00
2019-05-03T20:59:14.776Z,99657.56
2019-05-03T21:01:46.789Z,99654.66
2019-05-03T21:04:19.660Z,99655.80
2019-05-03T21:06:51.644Z,99652.07
2019-05-03T21:09:24.129Z,99658.45
2019-05-03T21:11:55.933Z,99658.83
2019-05-03T21:14:27.938Z,99655.66
2019-05-03T21:17:16.536Z,99658.46
2019-05-03T21:20:03.566Z,99656.98
2019-05-03T21:22:44.237Z,99658.84
2019-05-03T21:25:21.495Z,99658.09
2019-05-03T21:27:55.408Z,99662.97
2019-05-03T21:30:27.338Z,99660.80
2019-05-03T21:32:59.136Z,99659.59
2019-05-03T21:35:40.849Z,99659.42
2019-05-03T21:38:04.512Z,99659.16
2019-05-03T21:40:36.623Z,99652.72
2019-05-03T21:43:08.484Z,99653.83
2019-05-03T21:45:48.640Z,99657.39
2019-05-03T21:48:24.949Z,99656.27
2019-05-03T21:50:57.177Z,99655.16
2019-05-03T21:53:28.947Z,99654.89
2019-05-03T21:56:00.989Z,99654.12
2019-05-03T21:58:32.754Z,99660.00
2019-05-03T22:01:08.113Z,99665.41
2019-05-03T22:03:39.933Z,99662.06
2019-05-03T22:06:15.429Z,99662.72
2019-05-03T22:08:46.782Z,99666.37
2019-05-03T22:11:19.239Z,99659.94
2019-05-03T22:13:54.223Z,99666.81
2019-05-03T22:16:51.859Z,99663.17
2019-05-03T22:19:25.080Z,99663.47
2019-05-03T22:22:21.918Z,99666.91
2019-05-03T22:24:56.393Z,99660.74
2019-05-03T22:27:34.840Z,99670.27
2019-05-03T22:30:08.368Z,99673.70
2019-05-03T22:32:40.474Z,99663.61
2019-05-03T22:35:12.471Z,99661.73
2019-05-03T22:37:44.688Z,99658.38
2019-05-03T22:40:16.762Z,99664.34
2019-05-03T22:42:48.646Z,99661.07
2019-05-03T22:45:20.458Z,99661.07
2019-05-03T22:47:52.573Z,99662.73
2019-05-03T22:50:25.509Z,99662.28
2019-05-03T22:52:57.785Z,99659.85
2019-05-03T22:55:29.587Z,99658.89
2019-05-03T22:58:01.478Z,99656.23
2019-05-03T23:00:35.283Z,99659.58
2019-05-03T23:03:06.839Z,99659.39
2019-05-03T23:05:38.579Z,99652.48
2019-05-03T23:08:10.487Z,99659.00
2019-05-03T23:10:42.254Z,99648.18
2019-05-03T23:13:15.411Z,99649.69
2019-05-03T23:15:47.567Z,99644.35
2019-05-03T23:18:19.626Z,99644.47
2019-05-03T23:20:57.860Z,99641.55
2019-05-03T23:23:47.289Z,99640.25
2019-05-03T23:26:19.145Z,99643.42
2019-05-03T23:28:51.215Z,99644.80
2019-05-03T23:31:24.987Z,99645.06
2019-05-03T23:33:56.786Z,99640.98
2019-05-03T23:36:33.398Z,99641.38
2019-05-03T23:39:06.285Z,99643.42
2019-05-03T23:41:38.311Z,99634.95
2019-05-03T23:44:10.069Z,99645.13
2019-05-03T23:46:54.498Z,99645.88
2019-05-03T23:49:26.063Z,99644.92
2019-05-03T23:52:00.769Z,99636.00
2019-05-03T23:54:32.528Z,99634.70
2019-05-03T23:57:05.668Z,99634.31
2019-05-03T23:59:37.467Z,99627.80
